Time;durP1;ratioP1;P1;durP2;ratioP2;P2;SDS_P1;SDS_P2;PMS_P1;PMS_P2;Temp;Humidity;BMP_temperature;BMP_pressure;BME280_temperature;BME280_humidity;BME280_pressure;Samples;Min_cycle;Max_cycle;Signal;HPM_P1;HPM_P2
2021/12/26 00:01:55;;;;;;;63.50;24.60;;;;;;;-9.17;72.35;98788.09;102886;1316;99309;-69
2021/12/26 00:04:23;;;;;;;66.40;24.00;;;;;;;-9.24;72.20;98795.46;104240;1313;107814;-69
2021/12/26 00:06:51;;;;;;;65.20;25.30;;;;;;;-9.30;72.15;98799.74;102945;1316;99248;-69
2021/12/26 00:09:19;;;;;;;66.50;24.80;;;;;;;-9.33;72.23;98801.44;103664;1319;99366;-69
2021/12/26 00:11:48;;;;;;;69.50;26.30;;;;;;;-9.34;72.17;98802.30;102909;1316;113561;-68
2021/12/26 00:14:18;;;;;;;65.40;25.70;;;;;;;-9.37;72.17;98798.85;103169;1317;97926;-68
2021/12/26 00:16:48;;;;;;;69.50;26.10;;;;;;;-9.41;72.14;98800.56;103041;1319;108410;-68
2021/12/26 00:19:18;;;;;;;80.60;27.10;;;;;;;-9.44;72.10;98803.13;103156;1316;99342;-68
2021/12/26 00:21:47;;;;;;;72.60;26.20;;;;;;;-9.50;72.08;98807.40;103039;1320;99327;-70
2021/12/26 00:24:15;;;;;;;75.10;28.90;;;;;;;-9.55;71.99;98807.19;103132;1316;112706;-69
2021/12/26 00:26:47;;;;;;;70.10;25.40;;;;;;;-9.60;72.02;98807.88;103038;1316;97731;-70
2021/12/26 00:29:15;;;;;;;74.10;26.80;;;;;;;-9.64;72.07;98811.63;103082;1319;108373;-70
2021/12/26 00:31:43;;;;;;;69.10;26.30;;;;;;;-9.71;72.03;98814.68;103022;1316;99357;-70
2021/12/26 00:34:11;;;;;;;90.10;34.40;;;;;;;-9.86;71.85;98813.23;103085;1315;99322;-69
2021/12/26 00:36:40;;;;;;;97.70;34.90;;;;;;;-9.99;71.84;98810.77;103107;1319;112533;-70
2021/12/26 00:39:10;;;;;;;87.10;33.30;;;;;;;-10.08;71.75;98806.25;103159;1315;98092;-68
2021/12/26 00:41:39;;;;;;;65.00;25.90;;;;;;;-10.10;71.98;98804.69;103057;1316;108408;-69
2021/12/26 00:44:10;;;;;;;86.60;33.50;;;;;;;-10.09;72.04;98806.24;103017;1319;99249;-69
2021/12/26 00:46:38;;;;;;;93.30;37.80;;;;;;;-10.06;72.09;98806.27;103261;1316;98421;-70
2021/12/26 00:49:08;;;;;;;86.10;35.70;;;;;;;-10.02;72.08;98802.85;103149;1316;112902;-68
2021/12/26 00:51:37;;;;;;;74.50;30.10;;;;;;;-10.04;72.04;98810.04;103032;1317;98021;-70
2021/12/26 00:54:05;;;;;;;97.30;36.60;;;;;;;-10.05;72.12;98809.52;103023;1319;107149;-69
2021/12/26 00:56:33;;;;;;;71.40;27.30;;;;;;;-10.00;72.14;98814.70;103067;1316;99219;-70
2021/12/26 00:59:01;;;;;;;75.60;27.80;;;;;;;-10.01;71.95;98814.19;103069;1316;99216;-71
2021/12/26 01:01:34;;;;;;;78.10;32.70;;;;;;;-10.00;72.01;98810.41;103124;1316;112975;-69
2021/12/26 01:04:03;;;;;;;80.90;35.50;;;;;;;-10.05;72.03;98807.81;103134;1316;99250;-70
2021/12/26 01:06:31;;;;;;;95.50;34.50;;;;;;;-10.07;72.06;98805.56;102819;1319;107844;-70
2021/12/26 01:09:00;;;;;;;86.30;32.90;;;;;;;-10.06;72.04;98807.12;102949;1320;99394;-70
2021/12/26 01:11:41;;;;;;;95.40;36.60;;;;;;;-10.12;71.95;98808.95;103130;1316;97737;-69
2021/12/26 01:14:16;;;;;;;91.50;38.60;;;;;;;-10.11;72.10;98815.66;103203;1316;112829;-70
2021/12/26 01:16:48;;;;;;;74.00;30.40;;;;;;;-10.11;71.96;98813.95;103058;1319;99409;-69
2021/12/26 01:19:19;;;;;;;73.70;29.80;;;;;;;-10.13;71.98;98811.70;103153;1316;107915;-69
2021/12/26 01:21:48;;;;;;;73.30;33.50;;;;;;;-10.15;71.86;98807.23;103141;1316;99422;-69
2021/12/26 01:24:18;;;;;;;80.50;32.50;;;;;;;-10.20;71.84;98805.32;103180;1316;99260;-69
2021/12/26 01:26:46;;;;;;;91.40;37.40;;;;;;;-10.33;71.67;98804.02;103145;1316;113523;-69
2021/12/26 01:29:14;;;;;;;96.40;41.20;;;;;;;-10.41;71.84;98807.27;103097;1316;99148;-68
2021/12/26 01:31:44;;;;;;;92.10;37.40;;;;;;;-10.40;71.94;98804.02;103189;1316;109014;-70
2021/12/26 01:34:12;;;;;;;88.40;35.70;;;;;;;-10.40;71.87;98805.21;103014;1317;100368;-70
2021/12/26 01:36:42;;;;;;;98.60;38.10;;;;;;;-10.44;71.74;98803.81;103072;1317;96625;-69
2021/12/26 01:39:10;;;;;;;102.10;40.40;;;;;;;-10.50;71.72;98807.17;103168;1316;113465;-72
2021/12/26 01:41:42;;;;;;;134.50;48.50;;;;;;;-10.51;71.73;98805.13;103198;1315;99319;-70
2021/12/26 01:44:14;;;;;;;132.50;53.90;;;;;;;-10.53;71.56;98804.58;103091;1315;107828;-71
2021/12/26 01:46:47;;;;;;;130.10;54.30;;;;;;;-10.62;71.60;98802.46;103104;1318;99298;-70
2021/12/26 01:49:20;;;;;;;150.10;59.80;;;;;;;-10.67;71.53;98800.02;103040;1319;99219;-71
2021/12/26 01:51:54;;;;;;;;;;;;;;;-10.69;71.54;98801.20;102927;1322;113054;-70
2021/12/26 01:54:36;;;;;;;135.00;56.10;;;;;;;-10.69;71.65;98802.58;103098;1317;99239;-69
2021/12/26 01:57:10;;;;;;;130.90;48.90;;;;;;;-10.72;71.57;98806.84;103090;1319;107820;-69
2021/12/26 01:59:41;;;;;;;140.40;52.70;;;;;;;-10.74;71.53;98811.10;103113;1322;99355;-69
2021/12/26 02:02:11;;;;;;;108.40;45.60;;;;;;;-10.79;71.46;98811.05;103169;1320;96648;-69
2021/12/26 02:04:43;;;;;;;101.60;41.10;;;;;;;-10.81;71.58;98812.92;103020;1316;113429;-69
2021/12/26 02:07:13;;;;;;;106.00;39.30;;;;;;;-10.85;71.50;98816.67;103017;1317;99358;-69
2021/12/26 02:09:42;;;;;;;96.70;36.00;;;;;;;-10.87;71.54;98817.65;103003;1316;108437;-68
2021/12/26 02:12:11;;;;;;;87.30;34.80;;;;;;;-10.91;71.51;98819.34;103078;1317;99381;-70
2021/12/26 02:14:39;;;;;;;91.80;32.30;;;;;;;-10.96;71.48;98820.83;103211;1317;99164;-69
2021/12/26 02:17:07;;;;;;;75.40;31.00;;;;;;;-10.97;71.56;98822.02;103211;1316;113864;-69
2021/12/26 02:19:34;;;;;;;79.10;31.10;;;;;;;-11.07;71.26;98819.86;103195;1316;99346;-68
2021/12/26 02:22:15;;;;;;;86.20;35.70;;;;;;;-11.24;71.31;98815.08;103168;1316;108789;-69
2021/12/26 02:27:32;;;;;;;85.30;34.70;;;;;;;-11.20;71.58;98817.16;103133;1317;99237;-71
2021/12/26 02:30:10;;;;;;;81.60;34.30;;;;;;;-11.17;71.66;98813.77;103070;1319;112759;-69
2021/12/26 02:32:40;;;;;;;87.00;36.60;;;;;;;-11.15;71.63;98815.50;103241;1316;96643;-70
2021/12/26 02:35:09;;;;;;;89.90;36.80;;;;;;;-11.12;71.76;98813.82;103059;1316;108566;-69
2021/12/26 02:37:41;;;;;;;84.30;34.80;;;;;;;-11.11;71.58;98814.86;103050;1316;99378;-70
2021/12/26 02:40:11;;;;;;;93.50;35.30;;;;;;;-11.11;71.57;98816.23;103092;1316;99316;-68
2021/12/26 02:42:40;;;;;;;81.00;31.20;;;;;;;-11.12;71.50;98818.27;103146;1316;114938;-69
2021/12/26 02:45:09;;;;;;;78.70;30.00;;;;;;;-11.22;71.25;98817.14;103137;1317;99335;-70
2021/12/26 02:47:44;;;;;;;84.00;35.10;;;;;;;-11.35;71.29;98819.73;103159;1323;107461;-69
2021/12/26 02:50:22;;;;;;;98.20;39.80;;;;;;;-11.43;71.33;98820.34;103088;1316;162552;-69
2021/12/26 02:52:53;;;;;;;111.90;42.30;;;;;;;-11.63;70.98;98818.22;103052;1317;99314;-69
2021/12/26 02:55:23;;;;;;;113.50;46.40;;;;;;;-11.89;70.78;98823.86;103092;1316;112957;-69
2021/12/26 02:57:59;;;;;;;114.40;46.40;;;;;;;-12.03;70.92;98827.30;103068;1320;99230;-69
2021/12/26 03:00:32;;;;;;;113.00;42.90;;;;;;;-12.05;71.04;98829.84;102907;1319;107436;-72
2021/12/26 03:03:03;;;;;;;82.90;34.90;;;;;;;-11.99;71.19;98830.23;103042;1319;99348;-68
2021/12/26 03:05:35;;;;;;;113.00;44.70;;;;;;;-11.94;71.33;98834.06;103121;1319;99250;-69
2021/12/26 03:08:05;;;;;;;104.80;44.50;;;;;;;-11.91;71.34;98826.41;102783;1318;112866;-70
2021/12/26 03:10:34;;;;;;;109.40;45.00;;;;;;;-11.95;71.09;98825.83;103134;1316;96550;-70
2021/12/26 03:13:08;;;;;;;131.00;50.90;;;;;;;-12.02;71.20;98823.90;102898;1319;105607;-72
2021/12/26 03:15:39;;;;;;;94.80;39.00;;;;;;;-11.99;71.26;98826.30;103075;1323;99367;-69
2021/12/26 03:18:10;;;;;;;100.50;40.90;;;;;;;-11.96;71.27;98824.29;102914;1319;99265;-71
2021/12/26 03:20:47;;;;;;;112.30;43.60;;;;;;;-11.93;71.23;98824.85;102872;1322;112894;-72
2021/12/26 03:23:23;;;;;;;104.90;42.90;;;;;;;-11.94;71.16;98827.40;103103;1322;99325;-72
2021/12/26 03:25:57;;;;;;;114.50;45.30;;;;;;;-11.93;71.14;98826.02;102989;1323;107788;-71
2021/12/26 03:28:27;;;;;;;104.60;44.90;;;;;;;-11.92;71.22;98822.45;102986;1317;99311;-70
2021/12/26 03:30:59;;;;;;;105.50;40.40;;;;;;;-11.94;71.20;98821.75;103092;1316;99272;-71
2021/12/26 03:33:29;;;;;;;86.20;34.90;;;;;;;-12.03;71.00;98819.44;103116;1317;113470;-71
2021/12/26 03:35:59;;;;;;;96.80;36.30;;;;;;;-12.15;70.91;98822.52;103145;1317;99391;-72
2021/12/26 03:38:29;;;;;;;107.20;42.30;;;;;;;-12.30;70.73;98826.73;103081;1316;108130;-69
2021/12/26 03:40:57;;;;;;;125.60;49.20;;;;;;;-12.45;70.79;98828.05;103121;1316;99252;-69
2021/12/26 03:43:26;;;;;;;137.90;52.50;;;;;;;-12.58;70.74;98833.65;103118;1319;99362;-69
2021/12/26 03:45:56;;;;;;;125.90;49.40;;;;;;;-12.63;70.84;98829.13;103104;1316;113875;-70
2021/12/26 03:48:27;;;;;;;120.10;49.50;;;;;;;-12.63;71.07;98832.54;103105;1316;99247;-70
2021/12/26 03:50:58;;;;;;;116.70;47.80;;;;;;;-12.62;70.93;98832.38;102958;1318;106556;-72
2021/12/26 03:53:26;;;;;;;123.80;48.30;;;;;;;-12.59;71.02;98834.65;102906;1319;99278;-69
2021/12/26 03:55:54;;;;;;;122.00;44.30;;;;;;;-12.53;71.22;98838.33;103191;1316;99310;-68
2021/12/26 03:58:23;;;;;;;121.80;47.90;;;;;;;-12.49;71.15;98840.11;103055;1322;111871;-68
2021/12/26 04:00:53;;;;;;;113.50;46.90;;;;;;;-12.45;71.13;98836.93;102825;1326;96591;-70
2021/12/26 04:03:23;;;;;;;108.50;41.80;;;;;;;-12.46;71.12;98837.09;102954;1325;108125;-69
2021/12/26 04:05:55;;;;;;;106.20;42.50;;;;;;;-12.50;71.00;98838.39;102894;1319;99226;-69
2021/12/26 04:08:23;;;;;;;100.30;39.10;;;;;;;-12.69;70.68;98838.77;103031;1319;97906;-69
2021/12/26 04:10:53;;;;;;;104.80;39.30;;;;;;;-12.85;70.71;98835.76;102917;1318;113459;-69
2021/12/26 04:13:22;;;;;;;112.30;48.00;;;;;;;-13.03;70.78;98833.05;103106;1321;99320;-71
2021/12/26 04:15:50;;;;;;;101.50;39.80;;;;;;;-13.20;70.79;98837.16;102784;1319;108563;-69
2021/12/26 04:18:23;;;;;;;130.30;50.20;;;;;;;-13.37;70.64;98842.67;103045;1317;97834;-69
2021/12/26 04:20:53;;;;;;;117.00;45.60;;;;;;;-13.51;70.60;98841.58;102828;1318;96619;-70
2021/12/26 04:23:21;;;;;;;112.20;46.30;;;;;;;-13.55;70.60;98845.08;103048;1322;113550;-72
2021/12/26 04:25:49;;;;;;;129.20;54.20;;;;;;;-13.55;70.85;98849.66;103082;1321;99285;-71
2021/12/26 04:28:17;;;;;;;132.40;51.30;;;;;;;-13.54;71.00;98849.18;103065;1319;108004;-70
2021/12/26 04:30:47;;;;;;;129.30;50.20;;;;;;;-13.46;71.08;98850.35;103011;1319;99327;-69
2021/12/26 04:33:17;;;;;;;116.30;48.60;;;;;;;-13.39;70.97;98852.34;103021;1323;99274;-70
2021/12/26 04:35:45;;;;;;;134.10;51.10;;;;;;;-13.36;70.99;98850.18;103065;1317;112985;-69
2021/12/26 04:38:13;;;;;;;122.30;49.00;;;;;;;-13.28;70.96;98852.38;103112;1320;100079;-70
2021/12/26 04:40:43;;;;;;;121.20;45.50;;;;;;;-13.23;70.96;98853.00;103018;1316;108563;-70
2021/12/26 04:43:11;;;;;;;120.10;46.30;;;;;;;-13.20;70.95;98850.83;102842;1323;99206;-70
2021/12/26 04:45:39;;;;;;;98.10;40.50;;;;;;;-13.15;70.95;98849.05;103090;1316;99258;-70
2021/12/26 04:48:08;;;;;;;118.20;45.10;;;;;;;-13.09;71.02;98847.11;103066;1317;112428;-71
2021/12/26 04:50:40;;;;;;;117.00;46.00;;;;;;;-13.04;70.96;98849.42;102885;1319;97002;-70
2021/12/26 04:53:11;;;;;;;113.30;45.10;;;;;;;-13.00;70.97;98854.27;102952;1319;106829;-69
2021/12/26 04:55:39;;;;;;;115.70;45.30;;;;;;;-12.97;71.05;98857.56;103038;1317;99365;-70
2021/12/26 04:58:07;;;;;;;115.30;44.40;;;;;;;-12.95;71.06;98857.95;103056;1321;99254;-70
2021/12/26 05:00:37;;;;;;;104.50;38.30;;;;;;;-12.92;71.15;98857.49;103024;1316;111860;-68
2021/12/26 05:03:07;;;;;;;91.10;34.50;;;;;;;-12.96;70.94;98858.27;103092;1320;99199;-70
2021/12/26 05:05:37;;;;;;;103.10;40.60;;;;;;;-13.16;70.59;98861.33;103032;1317;108486;-70
2021/12/26 05:08:07;;;;;;;106.50;41.10;;;;;;;-13.30;70.56;98864.30;102823;1319;98467;-70
2021/12/26 05:10:37;;;;;;;120.30;46.50;;;;;;;-13.41;70.68;98867.67;103019;1316;99368;-69
2021/12/26 05:13:09;;;;;;;116.20;46.10;;;;;;;-13.49;70.68;98870.28;103008;1317;113482;-69
2021/12/26 05:15:37;;;;;;;120.80;51.80;;;;;;;-13.60;70.54;98873.79;103081;1317;98397;-69
2021/12/26 05:18:05;;;;;;;123.60;45.60;;;;;;;-13.68;70.75;98875.84;103074;1320;108341;-68
2021/12/26 05:20:33;;;;;;;112.00;40.10;;;;;;;-13.70;70.82;98872.90;103035;1322;99216;-68
2021/12/26 05:23:04;;;;;;;110.20;44.50;;;;;;;-13.71;70.83;98874.76;103060;1317;99326;-69
2021/12/26 05:25:32;;;;;;;93.50;38.20;;;;;;;-13.69;70.86;98874.13;103111;1324;112895;-69
2021/12/26 05:28:02;;;;;;;96.40;39.00;;;;;;;-13.64;71.02;98872.00;102883;1319;99216;-69
2021/12/26 05:30:33;;;;;;;102.30;38.70;;;;;;;-13.56;70.98;98876.93;102881;1319;107140;-73
2021/12/26 05:33:03;;;;;;;105.60;41.80;;;;;;;-13.50;71.12;98878.10;102915;1322;99411;-68
2021/12/26 05:35:31;;;;;;;112.80;42.20;;;;;;;-13.42;71.12;98876.52;102824;1319;100461;-69
2021/12/26 05:38:02;;;;;;;101.40;40.90;;;;;;;-13.36;71.08;98879.20;103052;1319;112771;-69
2021/12/26 05:40:30;;;;;;;99.80;39.30;;;;;;;-13.33;70.92;98873.10;103089;1319;99227;-69
2021/12/26 05:42:58;;;;;;;81.00;33.40;;;;;;;-13.31;70.93;98881.52;102879;1322;108346;-69
2021/12/26 05:45:25;;;;;;;81.10;31.20;;;;;;;-13.36;70.76;98885.33;103066;1320;99998;-70
2021/12/26 05:47:55;;;;;;;81.60;32.70;;;;;;;-13.56;70.66;98891.09;103123;1320;99267;-70
2021/12/26 05:50:26;;;;;;;99.30;37.10;;;;;;;-13.82;70.54;98893.95;103102;1319;113445;-68
2021/12/26 05:52:55;;;;;;;108.00;39.50;;;;;;;-14.04;70.59;98894.48;103108;1317;99270;-69
2021/12/26 05:55:23;;;;;;;116.70;45.30;;;;;;;-14.30;70.48;98898.83;103077;1320;107176;-70
2021/12/26 05:57:50;;;;;;;87.30;33.50;;;;;;;-14.46;70.55;98904.05;103016;1319;99326;-71
2021/12/26 06:00:20;;;;;;;108.90;42.90;;;;;;;-14.57;70.44;98903.78;103048;1319;99384;-70
2021/12/26 06:02:52;;;;;;;106.10;39.70;;;;;;;-14.68;70.56;98906.25;102978;1321;113502;-72
2021/12/26 06:05:22;;;;;;;133.70;51.00;;;;;;;-14.79;70.71;98903.10;103021;1322;99452;-71
2021/12/26 06:07:50;;;;;;;123.50;47.50;;;;;;;-14.88;70.50;98904.22;103033;1322;108352;-70
2021/12/26 06:10:18;;;;;;;116.10;44.80;;;;;;;-14.90;70.73;98909.79;102871;1319;99349;-69
2021/12/26 06:12:46;;;;;;;111.60;43.00;;;;;;;-14.88;70.77;98906.61;103098;1317;99283;-69
2021/12/26 06:15:15;;;;;;;106.40;44.30;;;;;;;-14.84;70.76;98903.30;103082;1320;113185;-69
2021/12/26 06:17:43;;;;;;;107.00;42.80;;;;;;;-14.77;70.81;98903.98;103143;1317;99313;-69
2021/12/26 06:20:16;;;;;;;112.80;39.90;;;;;;;-14.72;70.71;98906.35;103044;1321;108450;-68
2021/12/26 06:22:48;;;;;;;110.00;39.30;;;;;;;-14.66;70.81;98913.44;103069;1317;99322;-69
2021/12/26 06:25:16;;;;;;;118.90;44.70;;;;;;;-14.66;70.87;98914.29;103094;1317;99200;-69
2021/12/26 06:27:45;;;;;;;96.30;37.80;;;;;;;-14.69;70.63;98919.17;103069;1319;113522;-71
2021/12/26 06:30:16;;;;;;;111.50;45.80;;;;;;;-14.70;70.72;98920.01;103074;1319;99346;-69
2021/12/26 06:32:44;;;;;;;96.50;38.90;;;;;;;-14.74;70.48;98928.58;102958;1319;107907;-72
2021/12/26 06:35:13;;;;;;;91.20;35.00;;;;;;;-14.78;70.54;98931.36;102757;1325;96883;-71
2021/12/26 06:37:43;;;;;;;89.30;32.80;;;;;;;-14.82;70.67;98929.56;103064;1317;99128;-69
2021/12/26 06:40:14;;;;;;;95.90;34.60;;;;;;;-14.81;70.62;98926.88;103063;1322;112897;-69
2021/12/26 06:42:46;;;;;;;82.20;30.70;;;;;;;-14.75;70.89;98929.23;102965;1319;99340;-69
2021/12/26 06:45:18;;;;;;;66.60;25.00;;;;;;;-14.65;71.12;98927.42;102877;1319;107851;-68
2021/12/26 06:47:51;;;;;;;67.90;25.40;;;;;;;-14.54;71.25;98932.65;103051;1320;99831;-70
2021/12/26 06:50:23;;;;;;;68.70;24.50;;;;;;;-14.43;71.07;98934.27;103036;1316;96740;-71
2021/12/26 06:52:51;;;;;;;65.40;24.90;;;;;;;-14.33;71.01;98931.29;103070;1317;113435;-70
2021/12/26 06:55:19;;;;;;;52.60;22.50;;;;;;;-14.26;71.08;98930.60;102909;1319;97923;-71
2021/12/26 06:57:46;;;;;;;68.10;25.20;;;;;;;-14.20;71.03;98926.13;102996;1319;108459;-68
2021/12/26 07:00:17;;;;;;;63.60;25.90;;;;;;;-14.15;71.19;98933.27;103063;1324;99275;-69
2021/12/26 07:02:46;;;;;;;62.10;24.70;;;;;;;-14.11;71.18;98930.29;103013;1319;99304;-72
2021/12/26 07:05:16;;;;;;;72.70;29.90;;;;;;;-14.12;71.16;98933.51;103041;1319;112584;-69
2021/12/26 07:07:44;;;;;;;71.90;26.30;;;;;;;-14.16;71.08;98937.16;103057;1319;97803;-67
2021/12/26 07:10:12;;;;;;;77.00;29.10;;;;;;;-14.22;71.16;98941.27;102990;1317;108212;-69
2021/12/26 07:12:42;;;;;;;76.00;30.00;;;;;;;-14.21;71.14;98950.48;102854;1320;99371;-68
2021/12/26 07:15:13;;;;;;;72.80;29.50;;;;;;;-14.18;71.11;98949.71;103022;1317;99313;-68
2021/12/26 07:17:43;;;;;;;71.50;28.20;;;;;;;-14.15;71.19;98949.61;102895;1320;112993;-68
2021/12/26 07:20:14;;;;;;;68.30;28.70;;;;;;;-14.12;71.25;98951.73;103006;1317;99245;-68
2021/12/26 07:22:44;;;;;;;66.50;28.00;;;;;;;-14.11;71.33;98953.45;102947;1319;106353;-68
2021/12/26 07:25:14;;;;;;;64.80;25.30;;;;;;;-14.09;71.20;98955.73;102869;1319;99849;-70
2021/12/26 07:27:42;;;;;;;64.30;26.10;;;;;;;-14.05;71.31;98960.23;102839;1324;99101;-71
2021/12/26 07:30:12;;;;;;;73.60;28.20;;;;;;;-14.04;71.31;98964.70;103005;1317;112750;-72
2021/12/26 07:32:40;;;;;;;59.90;24.30;;;;;;;-14.00;71.39;98967.02;103004;1316;99227;-70
2021/12/26 07:35:10;;;;;;;62.80;23.90;;;;;;;-13.95;71.36;98968.16;103005;1319;107789;-70
2021/12/26 07:37:39;;;;;;;78.40;28.20;;;;;;;-13.89;71.37;98969.65;103021;1319;99256;-72
2021/12/26 07:40:07;;;;;;;64.50;25.60;;;;;;;-13.83;71.34;98969.28;103007;1316;98110;-72
2021/12/26 07:42:35;;;;;;;79.90;33.20;;;;;;;-13.78;71.38;98971.45;103000;1316;112860;-73
2021/12/26 07:45:04;;;;;;;75.90;28.60;;;;;;;-13.73;71.47;98973.27;102980;1317;99351;-74
2021/12/26 07:47:32;;;;;;;79.40;32.10;;;;;;;-13.70;71.45;98978.45;102969;1316;107888;-73
2021/12/26 07:49:59;;;;;;;57.00;21.20;;;;;;;-13.67;71.42;98979.73;103007;1317;99238;-73
2021/12/26 07:52:32;;;;;;;62.30;22.90;;;;;;;-13.58;71.66;98979.90;103007;1319;99444;-75
2021/12/26 07:55:03;;;;;;;78.00;31.90;;;;;;;-13.48;71.80;98981.86;103038;1318;112944;-73
2021/12/26 07:57:33;;;;;;;67.90;26.30;;;;;;;-13.41;71.72;98981.46;103027;1319;99352;-72
2021/12/26 08:00:05;;;;;;;92.60;34.00;;;;;;;-13.37;71.68;98980.52;103064;1322;109028;-71
2021/12/26 08:02:33;;;;;;;80.60;31.20;;;;;;;-13.35;71.74;98978.33;103069;1316;97934;-73
2021/12/26 08:05:01;;;;;;;78.20;29.40;;;;;;;-13.36;71.87;98983.95;103078;1316;99253;-74
2021/12/26 08:07:29;;;;;;;96.30;35.00;;;;;;;-13.33;71.76;98982.13;103093;1317;112407;-72
2021/12/26 08:09:56;;;;;;;72.60;27.90;;;;;;;-13.26;71.78;98979.89;103047;1317;99320;-75
2021/12/26 08:12:24;;;;;;;77.60;32.30;;;;;;;-13.19;71.89;98989.27;102880;1324;108112;-73
2021/12/26 08:14:52;;;;;;;74.40;27.80;;;;;;;-13.11;71.85;98986.87;102978;1317;98841;-75
2021/12/26 08:17:21;;;;;;;66.10;26.90;;;;;;;-13.02;71.91;98988.42;102983;1322;99359;-75
2021/12/26 08:19:49;;;;;;;67.50;26.20;;;;;;;-12.95;71.96;98990.11;103086;1319;112949;-74
2021/12/26 08:22:17;;;;;;;64.80;26.40;;;;;;;-12.90;71.88;98993.78;102883;1316;99220;-72
2021/12/26 08:24:45;;;;;;;66.20;27.90;;;;;;;-12.87;71.95;98994.02;103032;1319;107930;-72
2021/12/26 08:27:13;;;;;;;58.70;22.60;;;;;;;-12.82;72.05;99000.09;103064;1319;99228;-73
2021/12/26 08:29:43;;;;;;;75.70;29.40;;;;;;;-12.79;71.99;99003.21;103046;1322;96546;-73
2021/12/26 08:32:15;;;;;;;79.70;30.10;;;;;;;-12.72;72.21;99000.80;103048;1316;112928;-73
2021/12/26 08:34:44;;;;;;;71.70;29.10;;;;;;;-12.60;72.25;99004.45;102971;1317;99250;-73
2021/12/26 08:37:15;;;;;;;82.10;34.20;;;;;;;-12.49;72.17;99003.98;102970;1325;107818;-72
2021/12/26 08:39:47;;;;;;;86.90;33.50;;;;;;;-12.40;72.27;99004.47;103012;1319;99374;-73
2021/12/26 08:42:15;;;;;;;80.70;32.30;;;;;;;-12.37;72.26;99004.70;103092;1320;98912;-72
2021/12/26 08:44:43;;;;;;;84.60;32.80;;;;;;;-12.32;72.31;99007.02;103162;1316;112844;-74
2021/12/26 08:47:13;;;;;;;76.70;34.30;;;;;;;-12.22;72.40;99008.20;103090;1325;99962;-73
2021/12/26 08:49:45;;;;;;;84.80;34.60;;;;;;;-12.09;72.55;99007.94;102992;1325;107661;-73
2021/12/26 08:52:14;;;;;;;77.40;33.80;;;;;;;-11.92;72.48;99001.02;102999;1322;99128;-73
2021/12/26 08:54:42;;;;;;;86.80;37.10;;;;;;;-11.74;72.59;99000.77;103062;1324;99242;-71
2021/12/26 08:57:12;;;;;;;80.20;34.70;;;;;;;-11.49;72.79;99002.36;102919;1319;112789;-73
2021/12/26 08:59:42;;;;;;;91.40;39.10;;;;;;;-11.05;72.82;98997.65;103045;1317;99243;-72
2021/12/26 09:02:12;;;;;;;75.00;31.50;;;;;;;-10.71;72.90;99000.46;102838;1323;109202;-74
2021/12/26 09:04:42;;;;;;;83.00;35.10;;;;;;;-10.44;73.03;99000.26;102762;1325;99265;-74
2021/12/26 09:07:12;;;;;;;87.50;35.10;;;;;;;-10.16;73.29;98995.70;102868;1323;99345;-74
2021/12/26 09:09:46;;;;;;;85.30;37.90;;;;;;;-9.78;73.42;98997.07;102899;1317;113062;-73
2021/12/26 09:12:14;;;;;;;71.60;32.50;;;;;;;-9.33;73.32;98997.56;103022;1320;99317;-73
2021/12/26 09:14:45;;;;;;;82.40;36.50;;;;;;;-8.99;73.15;98993.80;102860;1324;107916;-73
2021/12/26 09:17:13;;;;;;;88.10;37.40;;;;;;;-8.57;73.34;98986.23;103027;1321;99372;-74
2021/12/26 09:19:41;;;;;;;87.30;37.70;;;;;;;-8.13;73.39;98981.67;103096;1317;99465;-74
2021/12/26 09:22:15;;;;;;;90.00;40.90;;;;;;;-7.73;73.34;98979.96;103049;1322;112779;-72
2021/12/26 09:24:46;;;;;;;89.20;41.10;;;;;;;-7.30;73.43;98975.45;103086;1317;99321;-75
2021/12/26 09:27:17;;;;;;;91.80;41.40;;;;;;;-7.02;73.37;98974.52;103024;1316;107891;-74
2021/12/26 09:29:47;;;;;;;94.50;42.30;;;;;;;-6.89;73.25;98974.30;102901;1320;99342;-75
2021/12/26 09:32:15;;;;;;;93.80;40.80;;;;;;;-6.83;73.41;98968.77;102871;1320;99256;-75
2021/12/26 09:34:45;;;;;;;83.10;36.70;;;;;;;-6.76;73.53;98965.30;102989;1321;112993;-74
2021/12/26 09:37:14;;;;;;;77.80;36.70;;;;;;;-6.83;73.39;98964.64;103057;1322;99122;-74
2021/12/26 09:39:43;;;;;;;92.10;42.60;;;;;;;-6.93;73.40;98965.36;102956;1317;107737;-74
2021/12/26 09:42:16;;;;;;;99.90;44.10;;;;;;;-6.97;73.55;98965.55;102976;1320;99346;-74
2021/12/26 09:44:48;;;;;;;97.70;43.40;;;;;;;-6.94;73.54;98965.02;103073;1316;99234;-73
2021/12/26 09:47:16;;;;;;;94.30;43.30;;;;;;;-6.92;73.53;98961.21;103019;1319;113395;-74
2021/12/26 09:49:44;;;;;;;100.50;44.30;;;;;;;-6.81;73.66;98963.41;103198;1323;99272;-74
2021/12/26 09:52:12;;;;;;;110.40;50.10;;;;;;;-6.72;73.84;98959.75;102990;1316;107559;-74
2021/12/26 09:54:45;;;;;;;78.00;35.70;;;;;;;-6.64;73.91;98962.64;103020;1320;100059;-73
2021/12/26 09:57:15;;;;;;;98.40;41.50;;;;;;;-6.67;73.82;98958.70;102910;1323;99202;-75
2021/12/26 09:59:47;;;;;;;123.40;55.00;;;;;;;-6.66;73.80;98952.48;102927;1322;112841;-75
2021/12/26 10:02:18;;;;;;;101.80;47.30;;;;;;;-6.55;73.80;98956.05;102986;1316;99533;-74
2021/12/26 10:04:50;;;;;;;100.40;46.20;;;;;;;-6.40;73.93;98951.84;102638;1316;108402;-73
2021/12/26 10:07:26;;;;;;;114.90;51.70;;;;;;;-6.24;73.85;98953.98;102944;1316;99248;-74
2021/12/26 10:09:54;;;;;;;109.70;52.50;;;;;;;-6.12;73.77;98954.59;103005;1316;99254;-74
2021/12/26 10:12:23;;;;;;;104.60;47.60;;;;;;;-6.07;73.72;98951.44;103041;1317;110499;-74
2021/12/26 10:14:54;;;;;;;103.40;46.50;;;;;;;-5.95;73.93;98952.38;103057;1320;98563;-74
2021/12/26 10:17:27;;;;;;;102.50;44.20;;;;;;;-5.87;73.98;98952.98;103023;1317;108988;-74
2021/12/26 10:20:01;;;;;;;78.80;37.00;;;;;;;-5.76;74.10;98957.23;103040;1320;100056;-75
2021/12/26 10:22:29;;;;;;;100.80;43.40;;;;;;;-5.62;74.29;98955.71;102870;1324;99261;-74
2021/12/26 10:25:07;;;;;;;96.00;41.70;;;;;;;-5.58;74.10;98955.51;102906;1321;112877;-75
2021/12/26 10:27:34;;;;;;;89.80;43.20;;;;;;;-5.62;73.82;98955.90;103048;1317;99324;-74
2021/12/26 10:30:05;;;;;;;96.40;43.70;;;;;;;-5.67;73.60;98954.21;102979;1325;107767;-74
2021/12/26 10:32:41;;;;;;;95.60;45.00;;;;;;;-5.71;73.72;98946.14;103011;1317;97503;-71
2021/12/26 10:35:16;;;;;;;93.20;41.80;;;;;;;-5.72;73.74;98947.34;103002;1316;96627;-73
2021/12/26 10:37:49;;;;;;;100.80;44.40;;;;;;;-5.69;73.94;98944.38;103030;1322;112540;-71
2021/12/26 10:40:28;;;;;;;95.40;42.90;;;;;;;-5.60;74.02;98945.33;102979;1319;99294;-77
2021/12/26 10:42:59;;;;;;;97.70;43.70;;;;;;;-5.51;73.93;98944.57;102964;1320;108341;-75
2021/12/26 10:45:33;;;;;;;101.60;48.80;;;;;;;-5.47;74.01;98942.97;102932;1317;97240;-75
2021/12/26 10:48:07;;;;;;;97.60;47.70;;;;;;;-5.53;73.81;98945.45;102908;1316;99235;-76
2021/12/26 10:50:40;;;;;;;95.40;44.00;;;;;;;-5.49;73.99;98942.99;102795;1317;173224;-77
2021/12/26 10:53:14;;;;;;;95.10;44.30;;;;;;;-5.53;73.79;98944.40;102850;1316;97283;-75
2021/12/26 10:55:47;;;;;;;89.50;41.40;;;;;;;-5.51;73.98;98950.61;102872;1313;106894;-75
2021/12/26 10:58:18;;;;;;;85.30;38.70;;;;;;;-5.42;74.21;98943.43;102889;1319;99461;-75
2021/12/26 11:00:55;;;;;;;87.70;39.50;;;;;;;-5.42;74.02;98941.88;102896;1317;96669;-75
2021/12/26 11:03:27;;;;;;;101.10;46.20;;;;;;;-5.56;73.78;98940.80;102869;1317;115648;-75
2021/12/26 11:06:08;;;;;;;112.30;50.10;;;;;;;-5.60;73.91;98940.34;103012;1317;96736;-75
2021/12/26 11:08:42;;;;;;;114.30;53.80;;;;;;;-5.60;73.77;98942.39;102874;1322;108513;-74
2021/12/26 11:11:16;;;;;;;110.30;52.00;;;;;;;-5.63;73.84;98935.69;102927;1316;97815;-73
2021/12/26 11:13:47;;;;;;;122.80;58.70;;;;;;;-5.67;73.76;98937.62;103159;1317;99334;-75